createdAt,value
2019-05-11T00:02:15.281Z,11.30
2019-05-11T00:04:43.725Z,11.43
2019-05-11T00:07:12.511Z,11.65
2019-05-11T00:09:55.678Z,9.93
2019-05-11T00:12:11.101Z,11.48
2019-05-11T00:14:39.505Z,9.93
2019-05-11T00:17:07.920Z,9.60
2019-05-11T00:19:36.375Z,10.35
2019-05-11T00:22:04.794Z,9.50
2019-05-11T00:24:33.226Z,9.75
2019-05-11T00:27:01.631Z,9.35
2019-05-11T00:29:30.257Z,9.38
2019-05-11T00:31:58.738Z,5.92
2019-05-11T00:34:27.251Z,6.40
2019-05-11T00:36:56.715Z,7.20
2019-05-11T00:39:28.148Z,6.97
2019-05-11T00:41:56.618Z,7.33
2019-05-11T00:44:25.051Z,7.67
2019-05-11T00:46:55.569Z,4.53
2019-05-11T00:49:25.058Z,3.92
2019-05-11T00:51:53.781Z,6.90
2019-05-11T00:54:22.229Z,7.95
2019-05-11T00:56:52.785Z,5.65
2019-05-11T00:59:23.704Z,3.98
2019-05-11T01:01:52.143Z,3.85
2019-05-11T01:04:20.611Z,4.17
2019-05-11T01:06:49.050Z,5.30
2019-05-11T01:09:19.331Z,4.47
2019-05-11T01:11:47.734Z,5.67
2019-05-11T01:14:16.136Z,6.97
2019-05-11T01:16:45.044Z,7.37
2019-05-11T01:19:14.523Z,7.08
2019-05-11T01:21:42.965Z,7.42
2019-05-11T01:24:11.381Z,7.42
2019-05-11T01:26:40.958Z,7.28
2019-05-11T01:29:10.478Z,8.18
2019-05-11T01:31:38.918Z,8.65
2019-05-11T01:34:07.339Z,8.47
2019-05-11T01:36:35.734Z,9.18
2019-05-11T01:39:06.042Z,10.58
2019-05-11T01:41:34.475Z,10.23
2019-05-11T01:44:02.930Z,11.25
2019-05-11T01:46:31.341Z,12.20
2019-05-11T01:48:59.778Z,8.35
2019-05-11T01:51:29.258Z,3.33
2019-05-11T01:53:57.730Z,2.47
2019-05-11T01:56:26.157Z,4.15
2019-05-11T01:58:54.634Z,5.87
2019-05-11T02:01:23.067Z,6.15
2019-05-11T02:03:51.522Z,8.93
2019-05-11T02:06:19.943Z,9.53
2019-05-11T02:08:48.380Z,11.60
2019-05-11T02:11:16.865Z,11.27
2019-05-11T02:13:45.271Z,11.10
2019-05-11T02:16:13.715Z,10.88
2019-05-11T02:18:43.238Z,8.50
2019-05-11T02:21:15.646Z,5.95
2019-05-11T02:26:11.712Z,4.83
2019-05-11T02:28:41.761Z,4.92
2019-05-11T02:31:10.147Z,4.90
2019-05-11T02:33:38.548Z,5.28
2019-05-11T02:36:06.982Z,8.40
2019-05-11T02:38:35.415Z,9.33
2019-05-11T02:41:03.840Z,11.73
2019-05-11T02:43:32.266Z,11.25
2019-05-11T02:46:00.700Z,8.93
2019-05-11T02:48:29.322Z,9.40
2019-05-11T02:51:00.367Z,10.23
2019-05-11T02:53:32.891Z,9.75
2019-05-11T02:56:02.026Z,9.43
2019-05-11T02:58:31.450Z,11.15
2019-05-11T03:01:03.401Z,11.37
2019-05-11T03:03:31.882Z,11.60
2019-05-11T03:06:00.301Z,12.70
2019-05-11T03:08:31.226Z,11.85
2019-05-11T03:10:59.634Z,12.78
2019-05-11T03:13:30.746Z,13.25
2019-05-11T03:16:03.163Z,12.50
2019-05-11T03:18:35.412Z,12.80
2019-05-11T03:21:03.929Z,9.73
2019-05-11T03:23:34.160Z,7.55
2019-05-11T03:26:06.362Z,6.78
2019-05-11T03:28:34.778Z,5.55
2019-05-11T03:31:04.029Z,6.53
2019-05-11T03:33:32.487Z,7.50
2019-05-11T03:36:00.909Z,8.43
2019-05-11T03:38:31.814Z,10.23
2019-05-11T03:41:00.246Z,8.83
2019-05-11T03:43:28.653Z,10.80
2019-05-11T03:45:57.098Z,10.85
2019-05-11T03:48:25.510Z,10.05
2019-05-11T03:50:53.955Z,11.68
2019-05-11T03:53:23.482Z,11.30
2019-05-11T03:55:51.907Z,10.60
2019-05-11T03:58:25.208Z,11.20
2019-05-11T04:00:50.501Z,11.30
2019-05-11T04:03:18.903Z,11.15
2019-05-11T04:05:47.335Z,10.70
2019-05-11T04:08:15.746Z,10.45
2019-05-11T04:10:46.593Z,10.50
2019-05-11T04:13:15.052Z,11.68
2019-05-11T04:15:44.501Z,11.30
2019-05-11T04:18:16.828Z,12.18
2019-05-11T04:20:45.333Z,10.20
2019-05-11T04:23:18.849Z,9.55
2019-05-11T04:25:47.245Z,10.38
2019-05-11T04:28:19.352Z,10.20
2019-05-11T04:30:47.778Z,9.95
2019-05-11T04:33:16.452Z,10.60
2019-05-11T04:35:45.050Z,10.68
2019-05-11T04:38:13.851Z,9.15
2019-05-11T04:40:44.895Z,10.23
2019-05-11T04:43:13.615Z,9.05
2019-05-11T04:45:42.094Z,8.90
2019-05-11T04:48:10.631Z,10.32
2019-05-11T04:50:41.620Z,10.15
2019-05-11T04:53:10.267Z,10.93
2019-05-11T04:55:38.946Z,10.65
2019-05-11T04:58:07.535Z,11.45
2019-05-11T05:00:36.232Z,10.88
2019-05-11T05:03:04.922Z,12.00
2019-05-11T05:05:33.588Z,12.18
2019-05-11T05:08:09.565Z,12.05
2019-05-11T05:10:32.649Z,12.30
2019-05-11T05:13:10.088Z,12.45
2019-05-11T05:15:31.743Z,11.83
2019-05-11T05:18:00.283Z,13.15
2019-05-11T05:20:28.870Z,11.33
2019-05-11T05:22:57.347Z,11.53
2019-05-11T05:25:25.924Z,11.73
2019-05-11T05:27:54.518Z,10.82
2019-05-11T05:30:24.125Z,10.68
2019-05-11T05:32:52.661Z,9.23
2019-05-11T05:35:21.117Z,8.65
2019-05-11T05:37:49.886Z,7.65
2019-05-11T05:40:18.875Z,8.53
2019-05-11T05:42:48.525Z,8.55
2019-05-11T05:45:17.371Z,6.72
2019-05-11T05:47:46.048Z,7.95
2019-05-11T05:50:15.904Z,7.28
2019-05-11T05:52:44.624Z,6.55
2019-05-11T05:55:14.742Z,6.53
2019-05-11T05:57:45.069Z,7.05
2019-05-11T06:00:14.279Z,5.35
2019-05-11T06:02:42.867Z,5.22
2019-05-11T06:05:11.817Z,5.40
2019-05-11T06:07:42.185Z,4.65
2019-05-11T06:10:11.345Z,4.67
2019-05-11T06:12:41.067Z,4.37
2019-05-11T06:15:10.287Z,4.47
2019-05-11T06:17:49.649Z,4.65
2019-05-11T06:20:21.011Z,4.25
2019-05-11T06:22:49.237Z,3.55
2019-05-11T06:25:18.645Z,3.90
2019-05-11T06:27:47.504Z,3.95
2019-05-11T06:30:17.552Z,3.73
2019-05-11T06:32:45.964Z,3.12
2019-05-11T06:35:15.714Z,2.62
2019-05-11T06:37:44.151Z,2.80
2019-05-11T06:40:13.399Z,3.00
2019-05-11T06:42:42.307Z,3.25
2019-05-11T06:45:14.212Z,3.50
2019-05-11T06:47:42.803Z,2.15
2019-05-11T06:50:11.942Z,2.62
2019-05-11T06:52:40.406Z,2.87
2019-05-11T06:55:10.130Z,2.50
2019-05-11T06:57:38.540Z,2.98
2019-05-11T07:00:08.792Z,2.90
2019-05-11T07:02:37.331Z,3.20
2019-05-11T07:05:08.956Z,3.00
2019-05-11T07:07:47.037Z,2.70
2019-05-11T07:10:09.726Z,3.08
2019-05-11T07:12:38.121Z,3.08
2019-05-11T07:15:07.399Z,2.65
2019-05-11T07:17:35.821Z,2.65
2019-05-11T07:20:06.272Z,2.45
2019-05-11T07:22:34.714Z,3.25
2019-05-11T07:25:03.623Z,3.42
2019-05-11T07:27:32.038Z,2.65
2019-05-11T07:30:00.453Z,2.65
2019-05-11T07:32:29.421Z,2.75
2019-05-11T07:34:57.918Z,3.17
2019-05-11T07:37:28.048Z,2.85
2019-05-11T07:39:58.040Z,2.50
2019-05-11T07:42:28.616Z,2.83
2019-05-11T07:44:58.274Z,3.35
2019-05-11T07:47:27.824Z,2.22
2019-05-11T07:49:57.921Z,2.30
2019-05-11T07:52:28.577Z,1.92
2019-05-11T07:54:58.044Z,2.30
2019-05-11T07:57:29.088Z,1.85
2019-05-11T07:59:57.941Z,1.90
2019-05-11T08:02:28.527Z,1.80
2019-05-11T08:04:58.750Z,2.20
2019-05-11T08:07:28.513Z,1.87
2019-05-11T08:09:58.742Z,1.75
2019-05-11T08:12:29.902Z,2.17
2019-05-11T08:15:08.038Z,1.57
2019-05-11T08:17:37.942Z,1.90
2019-05-11T08:20:04.290Z,1.77
2019-05-11T08:22:32.717Z,2.05
2019-05-11T08:25:01.333Z,2.30
2019-05-11T08:27:29.762Z,1.65
2019-05-11T08:29:58.346Z,1.90
2019-05-11T08:32:28.610Z,1.82
2019-05-11T08:34:58.042Z,1.98
2019-05-11T08:37:30.424Z,1.70
2019-05-11T08:40:01.657Z,1.92
2019-05-11T08:42:30.194Z,2.27
2019-05-11T08:45:16.170Z,1.52
2019-05-11T08:47:31.364Z,2.27
2019-05-11T08:50:00.921Z,2.25
2019-05-11T08:52:29.325Z,1.92
2019-05-11T08:54:57.968Z,2.50
2019-05-11T08:57:28.937Z,2.35
2019-05-11T08:59:59.976Z,2.55
2019-05-11T09:02:28.387Z,2.33
2019-05-11T09:04:58.896Z,2.00
2019-05-11T09:07:34.302Z,2.27
2019-05-11T09:10:02.720Z,2.65
2019-05-11T09:12:31.208Z,2.60
2019-05-11T09:15:02.470Z,1.70
2019-05-11T09:17:30.970Z,2.72
2019-05-11T09:19:59.385Z,2.37
2019-05-11T09:22:28.496Z,2.12
2019-05-11T09:24:58.254Z,2.08
2019-05-11T09:27:28.632Z,2.27
2019-05-11T09:29:58.830Z,1.98
2019-05-11T09:32:28.493Z,2.05
2019-05-11T09:34:57.977Z,2.70
2019-05-11T09:37:27.731Z,1.85
2019-05-11T09:39:58.326Z,2.10
2019-05-11T09:42:28.605Z,1.90
2019-05-11T09:44:58.224Z,2.08
2019-05-11T09:47:27.915Z,2.30
2019-05-11T09:49:58.216Z,2.27
2019-05-11T09:52:32.073Z,2.30
2019-05-11T09:54:58.712Z,2.45
2019-05-11T09:57:30.221Z,2.52
2019-05-11T09:59:58.816Z,2.20
2019-05-11T10:02:28.001Z,1.57
2019-05-11T10:04:57.852Z,2.22
2019-05-11T10:07:32.448Z,1.90
2019-05-11T10:09:59.314Z,2.20
2019-05-11T10:12:29.647Z,2.58
2019-05-11T10:14:59.133Z,2.22
2019-05-11T10:17:30.774Z,2.65
2019-05-11T10:19:59.241Z,2.53
2019-05-11T10:22:30.083Z,2.50
2019-05-11T10:24:58.892Z,2.37
2019-05-11T10:27:28.032Z,2.62
2019-05-11T10:29:58.781Z,1.80
2019-05-11T10:32:30.341Z,1.90
2019-05-11T10:34:58.829Z,2.42
2019-05-11T10:37:28.306Z,1.75
2019-05-11T10:39:57.764Z,2.42
2019-05-11T10:42:28.392Z,1.85
2019-05-11T10:44:59.254Z,2.10
2019-05-11T10:47:30.149Z,2.83
2019-05-11T10:50:02.788Z,1.82
2019-05-11T10:52:31.454Z,1.95
2019-05-11T10:55:02.442Z,1.85
2019-05-11T10:57:30.859Z,1.95
2019-05-11T10:59:59.443Z,1.82
2019-05-11T11:02:28.103Z,2.12
2019-05-11T11:04:58.712Z,1.90
2019-05-11T11:07:38.800Z,2.30
2019-05-11T11:10:13.509Z,2.40
2019-05-11T11:12:57.793Z,2.25
2019-05-11T11:15:28.881Z,1.90
2019-05-11T11:17:57.921Z,2.50
2019-05-11T11:20:31.568Z,1.80
2019-05-11T11:23:02.302Z,2.27
2019-05-11T11:25:30.432Z,2.50
2019-05-11T11:27:58.893Z,2.37
2019-05-11T11:30:28.551Z,1.90
2019-05-11T11:32:58.851Z,2.00
2019-05-11T11:35:27.956Z,2.02
2019-05-11T11:37:59.083Z,2.17
2019-05-11T11:40:28.148Z,1.92
2019-05-11T11:42:58.064Z,2.45
2019-05-11T11:45:28.848Z,1.60
2019-05-11T11:47:59.424Z,1.52
2019-05-11T11:50:28.917Z,2.17
2019-05-11T11:52:57.856Z,2.00
2019-05-11T11:55:28.794Z,2.00
2019-05-11T11:57:59.337Z,1.50
2019-05-11T12:00:28.789Z,1.60
2019-05-11T12:02:58.112Z,1.80
2019-05-11T12:05:28.387Z,1.70
2019-05-11T12:08:00.809Z,1.50
2019-05-11T12:10:29.202Z,1.57
2019-05-11T12:12:58.200Z,1.52
2019-05-11T12:15:28.971Z,1.30
2019-05-11T12:17:58.734Z,2.30
2019-05-11T12:20:28.677Z,1.50
2019-05-11T12:22:59.025Z,1.52
2019-05-11T12:25:27.976Z,1.42
2019-05-11T12:27:57.847Z,2.08
2019-05-11T12:30:30.116Z,1.77
2019-05-11T12:32:58.526Z,1.32
2019-05-11T12:35:28.430Z,1.67
2019-05-11T12:37:58.766Z,1.75
2019-05-11T12:40:28.213Z,1.67
2019-05-11T12:42:59.049Z,1.80
2019-05-11T12:45:29.359Z,1.67
2019-05-11T12:47:58.650Z,2.10
2019-05-11T12:50:28.651Z,1.98
2019-05-11T12:52:58.868Z,2.02
2019-05-11T12:55:33.955Z,1.77
2019-05-11T12:58:02.407Z,1.52
2019-05-11T13:00:31.575Z,2.60
2019-05-11T13:03:00.537Z,1.92
2019-05-11T13:05:29.021Z,2.50
2019-05-11T13:07:58.670Z,2.20
2019-05-11T13:10:28.651Z,1.90
2019-05-11T13:12:58.993Z,1.65
2019-05-11T13:15:28.226Z,1.73
2019-05-11T13:17:58.096Z,1.40
2019-05-11T13:20:28.510Z,1.85
2019-05-11T13:22:58.712Z,1.82
2019-05-11T13:25:28.244Z,1.70
2019-05-11T13:27:58.116Z,1.47
2019-05-11T13:30:27.826Z,1.82
2019-05-11T13:32:57.923Z,1.52
2019-05-11T13:35:29.609Z,1.70
2019-05-11T13:37:58.561Z,1.40
2019-05-11T13:40:27.794Z,1.57
2019-05-11T13:42:58.129Z,1.55
2019-05-11T13:45:28.263Z,1.62
2019-05-11T13:47:59.239Z,1.40
2019-05-11T13:50:29.646Z,1.32
2019-05-11T13:52:58.532Z,1.22
2019-05-11T13:55:28.547Z,1.40
2019-05-11T13:57:57.823Z,1.47
2019-05-11T14:00:28.649Z,1.80
2019-05-11T14:02:58.608Z,1.27
2019-05-11T14:05:28.505Z,1.50
2019-05-11T14:07:58.733Z,1.77
2019-05-11T14:10:28.205Z,1.27
2019-05-11T14:13:09.387Z,1.47
2019-05-11T14:15:30.770Z,1.40
2019-05-11T14:19:03.954Z,1.00
2019-05-11T14:20:58.632Z,1.45
2019-05-11T14:23:31.596Z,1.47
2019-05-11T14:26:00.345Z,1.27
2019-05-11T14:28:29.016Z,1.20
2019-05-11T14:30:57.924Z,1.47
2019-05-11T14:33:28.254Z,1.50
2019-05-11T14:35:57.996Z,1.70
2019-05-11T14:38:30.225Z,1.45
2019-05-11T14:43:30.469Z,1.27
2019-05-11T14:45:58.979Z,1.72
2019-05-11T14:48:30.073Z,1.98
2019-05-11T14:50:59.361Z,1.30
2019-05-11T14:53:31.033Z,1.60
2019-05-11T14:56:02.049Z,1.83
2019-05-11T14:58:31.568Z,1.62
2019-05-11T15:01:02.551Z,1.30
2019-05-11T15:03:33.517Z,1.52
2019-05-11T15:06:05.538Z,1.27
2019-05-11T15:08:33.967Z,1.57
2019-05-11T15:11:08.120Z,1.52
2019-05-11T15:13:38.270Z,1.30
2019-05-11T15:16:08.107Z,1.20
2019-05-11T15:18:41.751Z,2.20
2019-05-11T15:21:08.228Z,1.15
2019-05-11T15:23:40.755Z,1.27
2019-05-11T15:26:10.024Z,1.10
2019-05-11T15:28:39.206Z,1.30
2019-05-11T15:31:08.694Z,2.12
2019-05-11T15:33:41.302Z,1.72
2019-05-11T15:36:09.990Z,1.55
2019-05-11T15:38:38.545Z,1.00
2019-05-11T15:41:08.327Z,1.20
2019-05-11T15:43:40.961Z,1.50
2019-05-11T15:46:19.672Z,1.25
2019-05-11T15:48:58.852Z,1.80
2019-05-11T15:51:24.436Z,1.27
2019-05-11T15:53:53.203Z,1.17
2019-05-11T15:56:23.884Z,1.22
2019-05-11T15:58:52.141Z,1.42
2019-05-11T16:01:20.584Z,1.35
2019-05-11T16:03:52.757Z,0.88
2019-05-11T16:06:21.486Z,1.40
2019-05-11T16:08:50.010Z,1.57
2019-05-11T16:11:20.974Z,1.65
2019-05-11T16:13:49.451Z,1.60
2019-05-11T16:16:22.017Z,1.30
2019-05-11T16:18:50.734Z,1.75
2019-05-11T16:21:22.032Z,1.20
2019-05-11T16:23:54.150Z,1.30
2019-05-11T16:26:22.553Z,1.40
2019-05-11T16:28:51.785Z,1.00
2019-05-11T16:31:20.151Z,1.07
2019-05-11T16:33:48.898Z,1.35
2019-05-11T16:36:18.196Z,1.22
2019-05-11T16:38:48.364Z,1.87
2019-05-11T16:41:21.086Z,0.82
2019-05-11T16:43:48.605Z,1.40
2019-05-11T16:46:17.725Z,1.10
2019-05-11T16:48:46.387Z,1.30
2019-05-11T16:51:14.859Z,1.42
2019-05-11T16:53:43.469Z,0.90
2019-05-11T16:56:14.740Z,1.02
2019-05-11T16:58:43.196Z,1.20
2019-05-11T17:01:11.637Z,0.98
2019-05-11T17:03:48.195Z,1.00
2019-05-11T17:06:15.751Z,1.32
2019-05-11T17:08:44.647Z,1.32
2019-05-11T17:11:13.154Z,1.20
2019-05-11T17:13:41.912Z,1.20
2019-05-11T17:16:10.320Z,1.30
2019-05-11T17:18:40.561Z,1.32
2019-05-11T17:21:12.517Z,1.60
2019-05-11T17:23:48.729Z,1.17
2019-05-11T17:26:19.061Z,1.45
2019-05-11T17:28:50.151Z,1.60
2019-05-11T17:31:19.040Z,1.42
2019-05-11T17:33:47.843Z,1.20
2019-05-11T17:36:18.648Z,2.03
2019-05-11T17:38:48.112Z,1.22
2019-05-11T17:41:16.516Z,1.20
2019-05-11T17:43:47.966Z,1.40
2019-05-11T17:46:18.423Z,1.87
2019-05-11T17:48:46.951Z,1.45
2019-05-11T17:51:21.236Z,1.45
2019-05-11T17:53:45.516Z,1.42
2019-05-11T17:56:14.113Z,1.37
2019-05-11T17:58:42.520Z,1.45
2019-05-11T18:01:10.974Z,2.22
2019-05-11T18:03:39.377Z,1.60
2019-05-11T18:06:10.243Z,1.70
2019-05-11T18:08:38.662Z,1.40
2019-05-11T18:11:08.370Z,1.82
2019-05-11T18:13:38.954Z,1.72
2019-05-11T18:16:08.504Z,1.60
2019-05-11T18:18:37.819Z,1.40
2019-05-11T18:21:08.508Z,1.70
2019-05-11T18:23:38.642Z,1.62
2019-05-11T18:26:08.622Z,1.27
2019-05-11T18:28:37.976Z,1.65
2019-05-11T18:31:06.427Z,1.80
2019-05-11T18:33:34.917Z,1.60
2019-05-11T18:36:03.314Z,1.80
2019-05-11T18:38:31.948Z,1.57
2019-05-11T18:41:00.362Z,1.57
2019-05-11T18:43:30.721Z,1.60
2019-05-11T18:45:59.188Z,1.50
2019-05-11T18:48:30.312Z,1.62
2019-05-11T18:50:59.315Z,1.57
2019-05-11T18:53:28.847Z,1.60
2019-05-11T18:55:59.005Z,2.50
2019-05-11T18:58:27.937Z,2.33
2019-05-11T19:00:56.584Z,2.60
2019-05-11T19:03:24.982Z,1.75
2019-05-11T19:05:53.448Z,2.08
2019-05-11T19:08:21.824Z,1.95
2019-05-11T19:10:50.256Z,1.45
2019-05-11T19:13:19.772Z,1.62
2019-05-11T19:15:48.858Z,2.60
2019-05-11T19:18:17.400Z,2.12
2019-05-11T19:20:49.103Z,2.12
2019-05-11T19:23:19.309Z,1.57
2019-05-11T19:28:19.072Z,2.42
2019-05-11T19:30:48.825Z,2.60
2019-05-11T19:33:18.988Z,3.10
2019-05-11T19:35:48.236Z,3.12
2019-05-11T19:38:18.749Z,2.62
2019-05-11T19:40:48.436Z,3.22
2019-05-11T19:43:18.505Z,2.95
2019-05-11T19:45:48.655Z,2.83
2019-05-11T19:48:18.066Z,2.67
2019-05-11T19:51:00.904Z,2.65
2019-05-11T19:53:18.777Z,2.83
2019-05-11T19:55:48.238Z,2.25
2019-05-11T19:58:19.118Z,2.22
2019-05-11T20:00:48.820Z,2.55
2019-05-11T20:03:20.591Z,2.17
2019-05-11T20:05:49.095Z,1.83
2019-05-11T20:08:18.473Z,2.15
2019-05-11T20:10:48.678Z,2.12
2019-05-11T20:13:20.894Z,1.50
2019-05-11T20:15:52.087Z,1.72
2019-05-11T20:18:20.493Z,2.22
2019-05-11T20:20:48.906Z,2.10
2019-05-11T20:23:17.312Z,2.08
2019-05-11T20:25:47.780Z,2.40
2019-05-11T20:28:18.122Z,2.37
2019-05-11T20:30:48.105Z,1.80
2019-05-11T20:33:18.729Z,2.20
2019-05-11T20:35:48.901Z,1.95
2019-05-11T20:38:18.768Z,2.37
2019-05-11T20:40:48.491Z,2.33
2019-05-11T20:43:18.538Z,2.42
2019-05-11T20:45:48.709Z,2.17
2019-05-11T20:48:18.500Z,2.40
2019-05-11T20:50:48.342Z,2.62
2019-05-11T20:53:18.224Z,1.62
2019-05-11T20:55:47.828Z,2.30
2019-05-11T20:58:18.947Z,2.33
2019-05-11T21:00:49.093Z,1.95
2019-05-11T21:03:17.717Z,2.05
2019-05-11T21:05:48.117Z,2.35
2019-05-11T21:08:17.760Z,1.98
2019-05-11T21:10:48.822Z,1.85
2019-05-11T21:13:17.937Z,2.15
2019-05-11T21:15:47.948Z,2.05
2019-05-11T21:18:18.501Z,2.92
2019-05-11T21:20:48.378Z,2.60
2019-05-11T21:23:18.657Z,2.55
2019-05-11T21:25:48.058Z,2.20
2019-05-11T21:28:16.526Z,2.58
2019-05-11T21:30:48.074Z,2.22
2019-05-11T21:33:17.920Z,2.03
2019-05-11T21:35:48.771Z,2.58
2019-05-11T21:38:17.754Z,2.60
2019-05-11T21:40:48.411Z,2.70
2019-05-11T21:43:16.453Z,2.10
2019-05-11T21:45:48.207Z,2.52
2019-05-11T21:48:16.668Z,1.65
2019-05-11T21:50:45.085Z,1.92
2019-05-11T21:53:18.300Z,2.60
2019-05-11T21:55:48.019Z,2.50
2019-05-11T21:58:18.241Z,2.47
2019-05-11T22:00:50.351Z,2.20
2019-05-11T22:03:20.089Z,2.40
2019-05-11T22:05:48.588Z,2.40
2019-05-11T22:08:17.942Z,2.85
2019-05-11T22:10:46.404Z,2.67
2019-05-11T22:13:14.820Z,2.62
2019-05-11T22:15:43.240Z,2.62
2019-05-11T22:18:11.646Z,3.72
2019-05-11T22:20:40.929Z,2.47
2019-05-11T22:23:09.856Z,2.52
2019-05-11T22:25:39.287Z,3.00
2019-05-11T22:28:08.446Z,2.20
2019-05-11T22:30:39.082Z,2.05
2019-05-11T22:33:08.855Z,2.42
2019-05-11T22:35:37.886Z,2.20
2019-05-11T22:38:08.573Z,2.70
2019-05-11T22:40:38.336Z,2.47
2019-05-11T22:43:09.963Z,2.17
2019-05-11T22:45:42.245Z,2.90
2019-05-11T22:48:10.641Z,2.42
2019-05-11T22:50:39.809Z,2.60
2019-05-11T22:53:11.665Z,2.15
2019-05-11T22:55:39.050Z,2.45
2019-05-11T22:58:08.447Z,2.52
2019-05-11T23:00:43.624Z,2.27
2019-05-11T23:03:12.190Z,2.62
2019-05-11T23:05:41.928Z,2.52
2019-05-11T23:08:10.873Z,2.62
2019-05-11T23:10:39.294Z,2.40
2019-05-11T23:13:11.145Z,2.47
2019-05-11T23:15:40.293Z,2.85
2019-05-11T23:18:10.149Z,2.05
2019-05-11T23:20:38.913Z,2.85
2019-05-11T23:23:10.001Z,2.65
2019-05-11T23:25:38.414Z,3.05
2019-05-11T23:28:06.823Z,3.10
2019-05-11T23:30:35.251Z,2.67
2019-05-11T23:33:03.660Z,2.42
2019-05-11T23:35:32.054Z,3.10
2019-05-11T23:38:00.500Z,2.50
2019-05-11T23:40:28.917Z,2.83
2019-05-11T23:42:57.861Z,2.67
2019-05-11T23:45:27.986Z,2.98
2019-05-11T23:47:58.644Z,3.12
2019-05-11T23:50:28.191Z,2.90
2019-05-11T23:53:06.038Z,2.42
2019-05-11T23:55:28.917Z,3.35
2019-05-11T23:57:57.790Z,3.17
